createdAt,value
2018-03-26T00:01:24.139Z,8.66
2018-03-26T00:03:50.617Z,8.60
2018-03-26T00:06:17.015Z,8.62
2018-03-26T00:08:43.396Z,8.71
2018-03-26T00:11:09.777Z,8.73
2018-03-26T00:13:36.166Z,8.65
2018-03-26T00:16:02.646Z,8.62
2018-03-26T00:18:29.089Z,8.64
2018-03-26T00:20:55.538Z,8.61
2018-03-26T00:23:21.902Z,8.66
2018-03-26T00:25:48.310Z,8.67
2018-03-26T00:28:14.673Z,8.66
2018-03-26T00:30:41.078Z,8.65
2018-03-26T00:33:07.490Z,8.68
2018-03-26T00:35:33.845Z,8.61
2018-03-26T00:38:00.237Z,8.64
2018-03-26T00:40:26.609Z,8.67
2018-03-26T00:42:53.033Z,8.58
2018-03-26T00:45:19.386Z,8.56
2018-03-26T00:47:45.755Z,8.58
2018-03-26T00:50:12.141Z,8.57
2018-03-26T00:52:38.590Z,8.47
2018-03-26T00:55:04.978Z,8.43
2018-03-26T00:57:31.429Z,8.55
2018-03-26T00:59:57.785Z,8.64
2018-03-26T01:02:24.158Z,8.64
2018-03-26T01:04:50.510Z,8.66
2018-03-26T01:07:16.898Z,8.70
2018-03-26T01:09:43.302Z,8.61
2018-03-26T01:12:09.810Z,8.65
2018-03-26T01:14:36.260Z,8.69
2018-03-26T01:17:02.637Z,8.71
2018-03-26T01:19:29.016Z,8.69
2018-03-26T01:21:55.454Z,8.62
2018-03-26T01:24:21.910Z,8.65
2018-03-26T01:26:48.281Z,8.46
2018-03-26T01:29:14.673Z,8.54
2018-03-26T01:31:41.086Z,8.62
2018-03-26T01:34:07.443Z,8.37
2018-03-26T01:36:33.861Z,8.60
2018-03-26T01:39:00.270Z,8.62
2018-03-26T01:41:26.778Z,8.61
2018-03-26T01:43:53.238Z,8.64
2018-03-26T01:46:19.642Z,8.68
2018-03-26T01:48:46.073Z,8.64
2018-03-26T01:51:12.506Z,8.62
2018-03-26T01:53:38.885Z,8.60
2018-03-26T01:56:05.351Z,8.54
2018-03-26T01:58:31.801Z,8.50
2018-03-26T02:00:58.197Z,8.48
2018-03-26T02:03:24.648Z,8.52
2018-03-26T02:05:51.064Z,8.52
2018-03-26T02:08:17.463Z,8.55
2018-03-26T02:10:43.870Z,8.53
2018-03-26T02:13:10.275Z,8.51
2018-03-26T02:15:36.709Z,8.54
2018-03-26T02:18:03.218Z,8.43
2018-03-26T02:20:29.637Z,8.39
2018-03-26T02:22:55.975Z,8.33
2018-03-26T02:25:22.357Z,8.36
2018-03-26T02:27:48.741Z,8.31
2018-03-26T02:30:15.178Z,8.47
2018-03-26T02:32:41.595Z,8.49
2018-03-26T02:35:08.001Z,8.49
2018-03-26T02:37:34.380Z,8.52
2018-03-26T02:40:00.783Z,8.40
2018-03-26T02:42:27.173Z,8.47
2018-03-26T02:44:53.637Z,8.51
2018-03-26T02:47:19.999Z,8.52
2018-03-26T02:49:46.472Z,8.60
2018-03-26T02:52:12.915Z,8.57
2018-03-26T02:54:39.395Z,8.57
2018-03-26T02:57:05.824Z,8.58
2018-03-26T02:59:32.268Z,8.56
2018-03-26T03:01:58.771Z,8.56
2018-03-26T03:04:25.178Z,8.56
2018-03-26T03:06:51.557Z,8.57
2018-03-26T03:09:17.994Z,8.52
2018-03-26T03:11:44.494Z,8.50
2018-03-26T03:14:10.986Z,8.52
2018-03-26T03:16:37.432Z,8.53
2018-03-26T03:19:03.875Z,8.52
2018-03-26T03:21:30.278Z,8.49
2018-03-26T03:23:56.686Z,8.39
2018-03-26T03:26:23.122Z,8.45
2018-03-26T03:28:49.601Z,8.45
2018-03-26T03:31:15.961Z,8.48
2018-03-26T03:33:42.399Z,8.47
2018-03-26T03:36:08.797Z,8.49
2018-03-26T03:38:35.249Z,8.48
2018-03-26T03:41:01.634Z,8.48
2018-03-26T03:43:28.054Z,8.53
2018-03-26T03:45:54.451Z,8.52
2018-03-26T03:48:20.994Z,8.55
2018-03-26T03:50:47.410Z,8.56
2018-03-26T03:53:13.831Z,8.57
2018-03-26T03:55:40.234Z,8.58
2018-03-26T03:58:06.677Z,8.59
2018-03-26T04:00:33.110Z,8.56
2018-03-26T04:02:59.522Z,8.43
2018-03-26T04:05:25.934Z,8.33
2018-03-26T04:07:52.377Z,8.42
2018-03-26T04:10:18.822Z,8.49
2018-03-26T04:12:45.253Z,8.54
2018-03-26T04:15:11.677Z,8.56
2018-03-26T04:17:38.117Z,8.55
2018-03-26T04:20:04.620Z,8.55
2018-03-26T04:22:30.985Z,8.63
2018-03-26T04:24:57.414Z,8.59
2018-03-26T04:27:23.857Z,8.60
2018-03-26T04:29:50.329Z,8.59
2018-03-26T04:32:16.763Z,8.59
2018-03-26T04:34:43.169Z,8.55
2018-03-26T04:37:09.613Z,8.50
2018-03-26T04:39:36.085Z,8.49
2018-03-26T04:42:02.626Z,8.50
2018-03-26T04:44:29.006Z,8.57
2018-03-26T04:46:55.497Z,8.36
2018-03-26T04:49:21.934Z,7.91
2018-03-26T04:51:48.293Z,8.22
2018-03-26T04:54:14.850Z,8.31
2018-03-26T04:56:41.257Z,8.41
2018-03-26T04:59:07.678Z,8.37
2018-03-26T05:01:34.083Z,8.48
2018-03-26T05:04:00.482Z,8.40
2018-03-26T05:06:26.873Z,8.53
2018-03-26T05:08:53.329Z,8.55
2018-03-26T05:11:20.080Z,8.56
2018-03-26T05:13:46.690Z,8.58
2018-03-26T05:16:13.058Z,8.56
2018-03-26T05:18:39.632Z,8.52
2018-03-26T05:21:06.022Z,8.52
2018-03-26T05:23:32.373Z,8.52
2018-03-26T05:25:58.818Z,8.54
2018-03-26T05:28:25.214Z,8.56
2018-03-26T05:30:51.653Z,8.56
2018-03-26T05:33:18.163Z,8.61
2018-03-26T05:35:44.671Z,8.57
2018-03-26T05:38:11.046Z,8.60
2018-03-26T05:40:37.667Z,8.67
2018-03-26T05:43:04.170Z,8.65
2018-03-26T05:45:30.647Z,8.61
2018-03-26T05:47:57.059Z,8.58
2018-03-26T05:50:23.621Z,8.58
2018-03-26T05:52:50.039Z,8.65
2018-03-26T05:55:16.435Z,8.58
2018-03-26T05:57:42.970Z,8.60
2018-03-26T06:00:09.456Z,8.66
2018-03-26T06:02:35.819Z,8.67
2018-03-26T06:05:02.278Z,8.64
2018-03-26T06:07:28.621Z,8.51
2018-03-26T06:09:55.026Z,8.63
2018-03-26T06:12:21.594Z,8.64
2018-03-26T06:14:48.041Z,8.66
2018-03-26T06:17:14.605Z,8.69
2018-03-26T06:19:41.129Z,8.69
2018-03-26T06:22:07.861Z,8.66
2018-03-26T06:24:34.360Z,8.69
2018-03-26T06:27:00.901Z,8.63
2018-03-26T06:29:27.401Z,8.67
2018-03-26T06:31:53.963Z,8.70
2018-03-26T06:34:20.421Z,8.71
2018-03-26T06:50:09.502Z,8.76
2018-03-26T06:52:36.042Z,8.73
2018-03-26T06:55:02.594Z,8.71
2018-03-26T06:57:29.034Z,8.66
2018-03-26T06:59:55.410Z,8.62
2018-03-26T07:02:21.900Z,8.60
2018-03-26T07:04:48.312Z,8.66
2018-03-26T07:07:15.097Z,8.67
2018-03-26T07:09:41.462Z,8.70
2018-03-26T07:12:07.942Z,8.76
2018-03-26T07:14:34.381Z,8.78
2018-03-26T07:17:00.756Z,8.74
2018-03-26T07:19:27.234Z,8.71
2018-03-26T07:21:53.757Z,8.75
2018-03-26T07:24:20.314Z,8.77
2018-03-26T07:26:46.724Z,8.64
2018-03-26T07:29:13.254Z,8.67
2018-03-26T07:31:39.629Z,8.72
2018-03-26T07:34:06.046Z,8.75
2018-03-26T07:36:32.478Z,8.77
2018-03-26T07:38:59.316Z,8.82
2018-03-26T07:41:25.970Z,8.75
2018-03-26T07:43:52.577Z,8.77
2018-03-26T07:46:19.142Z,8.82
2018-03-26T07:48:45.546Z,8.85
2018-03-26T07:51:12.058Z,8.84
2018-03-26T07:53:38.742Z,8.84
2018-03-26T07:56:05.317Z,8.89
2018-03-26T07:58:31.755Z,8.93
2018-03-26T08:00:58.406Z,8.93
2018-03-26T08:03:25.007Z,8.90
2018-03-26T08:05:51.968Z,8.76
2018-03-26T08:08:18.518Z,8.77
2018-03-26T08:10:46.165Z,8.78
2018-03-26T08:13:12.688Z,8.84
2018-03-26T08:15:40.125Z,8.91
2018-03-26T08:18:10.966Z,8.92
2018-03-26T09:04:36.957Z,9.26
2018-03-26T09:07:03.521Z,9.23
2018-03-26T09:09:29.953Z,9.24
2018-03-26T09:11:57.471Z,9.35
2018-03-26T09:14:24.559Z,9.42
2018-03-26T09:16:51.050Z,9.48
2018-03-26T09:19:17.626Z,9.52
2018-03-26T09:21:43.994Z,9.58
2018-03-26T09:24:10.514Z,9.62
2018-03-26T09:26:36.953Z,9.66
2018-03-26T09:29:03.557Z,9.74
2018-03-26T09:31:30.039Z,9.76
2018-03-26T09:33:56.560Z,9.76
2018-03-26T09:36:23.070Z,9.77
2018-03-26T09:38:49.978Z,9.81
2018-03-26T09:41:16.498Z,9.85
2018-03-26T09:43:42.867Z,9.79
2018-03-26T09:46:09.367Z,9.73
2018-03-26T09:48:35.731Z,9.69
2018-03-26T09:51:02.330Z,9.70
2018-03-26T09:53:28.889Z,9.75
2018-03-26T09:55:55.332Z,9.72
2018-03-26T09:58:21.793Z,9.74
2018-03-26T10:00:48.247Z,9.72
2018-03-26T10:03:14.610Z,9.71
2018-03-26T10:05:41.001Z,9.72
2018-03-26T10:08:07.407Z,9.71
2018-03-26T10:10:33.927Z,9.76
2018-03-26T10:13:03.778Z,9.48
2018-03-26T10:15:31.824Z,9.59
2018-03-26T10:18:00.661Z,9.63
2018-03-26T10:20:32.358Z,9.67
2018-03-26T10:23:01.189Z,9.71
2018-03-26T10:25:34.866Z,9.67
2018-03-26T10:28:07.231Z,9.81
2018-03-26T10:30:51.059Z,9.81
2018-03-26T10:34:00.427Z,9.73
2018-03-26T10:36:29.690Z,9.79
2018-03-26T10:38:56.110Z,9.67
2018-03-26T10:41:22.609Z,9.77
2018-03-26T10:43:49.071Z,9.77
2018-03-26T10:46:15.562Z,9.80
2018-03-26T10:48:42.209Z,9.74
2018-03-26T10:51:08.654Z,9.84
2018-03-26T10:53:35.081Z,9.86
2018-03-26T10:56:01.490Z,9.85
2018-03-26T10:58:27.902Z,9.86
2018-03-26T11:00:54.398Z,9.93
2018-03-26T11:03:20.969Z,9.89
2018-03-26T11:05:47.569Z,9.85
2018-03-26T11:08:14.026Z,9.93
2018-03-26T11:10:40.547Z,9.97
2018-03-26T11:13:07.570Z,10.03
2018-03-26T11:15:34.078Z,10.05
2018-03-26T11:18:01.239Z,10.09
2018-03-26T11:20:31.241Z,10.13
2018-03-26T11:22:57.969Z,10.21
2018-03-26T11:25:25.205Z,10.21
2018-03-26T11:27:52.523Z,10.27
2018-03-26T11:30:19.291Z,10.13
2018-03-26T11:32:45.956Z,10.17
2018-03-26T11:35:14.237Z,10.14
2018-03-26T11:37:44.396Z,10.08
2018-03-26T11:40:10.938Z,10.05
2018-03-26T11:42:37.473Z,10.08
2018-03-26T11:45:04.183Z,10.11
2018-03-26T11:47:31.057Z,10.12
2018-03-26T11:49:57.889Z,10.18
2018-03-26T11:52:24.522Z,10.17
2018-03-26T11:55:00.236Z,10.18
2018-03-26T11:57:29.505Z,10.13
2018-03-26T11:59:56.070Z,10.02
2018-03-26T12:02:22.698Z,10.06
2018-03-26T12:04:49.198Z,10.12
2018-03-26T12:07:15.731Z,10.19
2018-03-26T12:09:42.366Z,10.30
2018-03-26T12:12:09.041Z,10.37
2018-03-26T12:14:35.594Z,10.42
2018-03-26T12:17:02.252Z,10.45
2018-03-26T12:19:28.951Z,10.36
2018-03-26T12:21:55.625Z,10.35
2018-03-26T12:24:34.521Z,10.42
2018-03-26T12:27:01.096Z,10.39
2018-03-26T12:29:39.967Z,10.41
2018-03-26T12:32:06.559Z,10.49
2018-03-26T12:34:45.293Z,10.52
2018-03-26T12:37:12.005Z,10.60
2018-03-26T12:39:38.696Z,10.67
2018-03-26T12:42:05.402Z,10.73
2018-03-26T12:44:44.138Z,10.81
2018-03-26T12:47:10.555Z,10.72
2018-03-26T12:49:37.033Z,10.85
2018-03-26T12:52:15.849Z,10.74
2018-03-26T12:54:42.301Z,10.70
2018-03-26T12:57:21.111Z,10.84
2018-03-26T12:59:47.651Z,10.89
2018-03-26T13:02:31.234Z,10.95
2018-03-26T13:04:58.064Z,11.01
2018-03-26T13:07:24.726Z,11.07
2018-03-26T13:09:51.375Z,11.15
2018-03-26T13:12:17.988Z,11.21
2018-03-26T13:14:44.542Z,11.26
2018-03-26T13:17:11.124Z,11.27
2018-03-26T13:19:37.766Z,11.09
2018-03-26T13:22:04.372Z,11.25
2018-03-26T13:24:31.005Z,11.26
2018-03-26T13:26:57.526Z,11.37
2018-03-26T13:29:24.053Z,11.40
2018-03-26T13:31:50.614Z,11.38
2018-03-26T13:34:17.229Z,11.45
2018-03-26T13:36:44.102Z,11.49
2018-03-26T13:39:10.881Z,11.55
2018-03-26T13:41:37.450Z,11.57
2018-03-26T13:44:04.113Z,11.51
2018-03-26T13:46:30.905Z,11.48
2018-03-26T13:48:57.822Z,11.51
2018-03-26T13:51:24.419Z,11.52
2018-03-26T13:53:51.242Z,11.50
2018-03-26T13:56:17.917Z,11.55
2018-03-26T13:58:44.588Z,11.60
2018-03-26T14:01:11.253Z,11.56
2018-03-26T14:03:37.881Z,11.56
2018-03-26T14:06:04.594Z,11.63
2018-03-26T14:21:57.178Z,11.25
2018-03-26T14:24:23.745Z,11.25
2018-03-26T14:26:50.358Z,11.18
2018-03-26T14:29:17.311Z,11.14
2018-03-26T14:31:44.054Z,11.10
2018-03-26T14:34:10.609Z,11.21
2018-03-26T14:36:37.226Z,11.13
2018-03-26T14:39:03.982Z,11.16
2018-03-26T14:41:30.642Z,10.99
2018-03-26T14:43:57.472Z,10.95
2018-03-26T14:46:24.161Z,10.96
2018-03-26T14:48:50.775Z,10.91
2018-03-26T14:51:17.309Z,10.99
2018-03-26T14:53:43.832Z,10.97
2018-03-26T14:56:10.466Z,11.13
2018-03-26T14:58:37.086Z,11.14
2018-03-26T15:01:03.682Z,11.13
2018-03-26T15:03:30.214Z,11.06
2018-03-26T15:05:56.843Z,11.00
2018-03-26T15:08:23.366Z,11.06
2018-03-26T15:10:49.976Z,10.99
2018-03-26T15:13:16.630Z,11.08
2018-03-26T15:15:43.141Z,11.12
2018-03-26T15:18:09.656Z,11.10
2018-03-26T15:20:36.218Z,11.17
2018-03-26T15:23:02.906Z,11.14
2018-03-26T15:25:29.427Z,11.15
2018-03-26T15:27:56.010Z,11.15
2018-03-26T15:30:22.618Z,11.11
2018-03-26T15:32:49.155Z,10.98
2018-03-26T15:35:15.822Z,10.98
2018-03-26T15:37:42.399Z,10.95
2018-03-26T15:40:08.937Z,10.96
2018-03-26T15:42:35.554Z,11.02
2018-03-26T15:45:02.285Z,11.04
2018-03-26T15:47:28.810Z,11.03
2018-03-26T15:49:55.413Z,11.07
2018-03-26T15:52:22.078Z,10.91
2018-03-26T15:54:48.702Z,10.88
2018-03-26T15:57:15.235Z,10.87
2018-03-26T15:59:41.809Z,10.86
2018-03-26T16:02:08.194Z,10.88
2018-03-26T16:04:34.866Z,10.70
2018-03-26T16:07:01.440Z,10.77
2018-03-26T16:09:27.978Z,10.82
2018-03-26T16:11:54.502Z,10.77
2018-03-26T16:14:21.074Z,10.54
2018-03-26T16:16:47.662Z,10.52
2018-03-26T16:19:14.158Z,10.36
2018-03-26T16:21:40.752Z,10.40
2018-03-26T16:24:07.499Z,10.37
2018-03-26T16:26:34.034Z,10.41
2018-03-26T16:29:00.577Z,10.30
2018-03-26T16:31:27.094Z,10.34
2018-03-26T16:33:53.642Z,10.35
2018-03-26T16:36:20.223Z,10.38
2018-03-26T16:38:47.125Z,10.25
2018-03-26T16:41:25.903Z,10.39
2018-03-26T16:43:52.398Z,10.49
2018-03-26T16:46:18.971Z,10.48
2018-03-26T16:48:45.491Z,10.41
2018-03-26T16:51:12.042Z,10.36
2018-03-26T16:53:38.604Z,10.36
2018-03-26T16:56:05.250Z,10.24
2018-03-26T16:58:31.900Z,10.32
2018-03-26T17:00:58.498Z,10.30
2018-03-26T17:03:25.098Z,10.31
2018-03-26T17:05:51.683Z,10.27
2018-03-26T17:08:18.202Z,10.24
2018-03-26T17:10:44.770Z,10.26
2018-03-26T17:13:11.262Z,10.26
2018-03-26T17:15:37.802Z,10.20
2018-03-26T17:18:04.417Z,10.20
2018-03-26T17:20:30.926Z,10.16
2018-03-26T17:22:57.479Z,10.08
2018-03-26T17:25:23.998Z,10.05
2018-03-26T17:27:50.510Z,10.10
2018-03-26T17:30:17.046Z,10.14
2018-03-26T17:32:43.604Z,10.12
2018-03-26T17:35:10.154Z,10.09
2018-03-26T17:37:36.675Z,10.13
2018-03-26T17:40:03.937Z,10.09
2018-03-26T17:42:30.479Z,9.95
2018-03-26T17:44:57.000Z,10.10
2018-03-26T17:47:23.570Z,10.21
2018-03-26T17:49:50.154Z,10.25
2018-03-26T17:52:16.710Z,10.27
2018-03-26T17:54:43.226Z,10.19
2018-03-26T17:57:09.770Z,10.15
2018-03-26T17:59:36.274Z,10.24
2018-03-26T18:02:02.836Z,10.23
2018-03-26T18:04:29.389Z,10.14
2018-03-26T18:06:55.870Z,10.08
2018-03-26T18:09:22.470Z,9.95
2018-03-26T18:11:49.038Z,9.90
2018-03-26T18:14:15.639Z,9.97
2018-03-26T18:16:42.186Z,10.09
2018-03-26T18:19:08.788Z,10.11
2018-03-26T18:21:35.402Z,10.08
2018-03-26T18:24:01.894Z,10.17
2018-03-26T18:26:28.454Z,10.22
2018-03-26T18:28:54.990Z,10.21
2018-03-26T18:31:21.510Z,10.05
2018-03-26T18:33:48.069Z,10.13
2018-03-26T18:36:14.817Z,10.13
2018-03-26T18:38:41.298Z,10.07
2018-03-26T18:41:07.790Z,10.07
2018-03-26T18:43:34.266Z,10.02
2018-03-26T18:46:00.729Z,9.99
2018-03-26T18:48:27.166Z,9.99
2018-03-26T18:50:53.590Z,9.98
2018-03-26T18:53:20.114Z,9.97
2018-03-26T18:55:46.594Z,9.93
2018-03-26T18:58:13.105Z,9.89
2018-03-26T19:00:39.635Z,9.91
2018-03-26T19:03:06.105Z,9.97
2018-03-26T19:05:32.613Z,10.06
2018-03-26T19:07:59.165Z,10.04
2018-03-26T19:10:25.648Z,9.71
2018-03-26T19:12:52.131Z,9.83
2018-03-26T19:15:18.701Z,9.91
2018-03-26T19:17:45.161Z,9.88
2018-03-26T19:20:11.775Z,9.85
2018-03-26T19:22:38.313Z,9.86
2018-03-26T19:25:04.822Z,9.95
2018-03-26T19:27:31.332Z,9.91
2018-03-26T19:29:57.883Z,9.83
2018-03-26T19:32:24.346Z,9.86
2018-03-26T19:34:51.003Z,9.83
2018-03-26T19:37:17.469Z,9.83
2018-03-26T19:39:43.931Z,9.85
2018-03-26T19:42:10.358Z,9.89
2018-03-26T19:44:36.845Z,9.93
2018-03-26T19:47:03.280Z,9.88
2018-03-26T19:49:29.779Z,9.87
2018-03-26T19:51:56.402Z,9.88
2018-03-26T19:54:22.817Z,9.90
2018-03-26T19:56:49.234Z,9.87
2018-03-26T19:59:15.622Z,9.86
2018-03-26T20:01:42.053Z,9.84
2018-03-26T20:04:08.506Z,9.78
2018-03-26T20:06:34.946Z,9.84
2018-03-26T20:09:01.458Z,9.75
2018-03-26T20:11:27.908Z,9.79
2018-03-26T20:13:54.470Z,9.81
2018-03-26T20:16:20.942Z,9.76
2018-03-26T20:18:47.829Z,9.82
2018-03-26T20:21:14.269Z,9.74
2018-03-26T20:23:40.705Z,9.57
2018-03-26T20:26:07.149Z,9.56
2018-03-26T20:28:33.664Z,9.58
2018-03-26T20:31:00.128Z,9.57
2018-03-26T20:33:26.558Z,9.57
2018-03-26T20:35:53.001Z,9.54
2018-03-26T20:38:19.501Z,9.61
2018-03-26T20:40:45.954Z,9.73
2018-03-26T20:43:12.468Z,9.71
2018-03-26T20:45:38.890Z,9.84
2018-03-26T20:48:05.541Z,9.76
2018-03-26T20:50:32.014Z,9.70
2018-03-26T20:52:58.440Z,9.78
2018-03-26T20:55:24.929Z,9.63
2018-03-26T20:57:51.399Z,9.67
2018-03-26T21:00:17.905Z,9.65
2018-03-26T21:02:44.752Z,9.64
2018-03-26T21:05:11.198Z,9.71
2018-03-26T21:07:37.621Z,9.67
2018-03-26T21:10:04.134Z,9.72
2018-03-26T21:12:30.590Z,9.73
2018-03-26T21:14:57.062Z,9.75
2018-03-26T21:17:23.547Z,9.86
2018-03-26T21:19:50.070Z,9.94
2018-03-26T21:22:16.483Z,9.94
2018-03-26T21:24:42.914Z,9.93
2018-03-26T21:27:09.346Z,9.80
2018-03-26T21:29:35.783Z,9.81
2018-03-26T21:32:02.273Z,9.89
2018-03-26T21:34:28.694Z,9.93
2018-03-26T21:36:55.210Z,9.91
2018-03-26T21:39:21.622Z,9.97
2018-03-26T21:41:48.074Z,9.88
2018-03-26T21:44:14.517Z,9.91
2018-03-26T21:46:40.941Z,9.79
2018-03-26T21:49:07.440Z,9.83
2018-03-26T21:51:33.933Z,9.93
2018-03-26T21:54:00.349Z,9.91
2018-03-26T21:56:26.762Z,9.82
2018-03-26T21:58:53.278Z,9.77
2018-03-26T22:01:19.826Z,9.82
2018-03-26T22:03:46.315Z,9.89
2018-03-26T22:06:12.738Z,9.87
2018-03-26T22:08:39.162Z,9.87
2018-03-26T22:11:05.683Z,9.83
2018-03-26T22:13:32.086Z,9.79
2018-03-26T22:15:58.518Z,9.71
2018-03-26T22:18:25.066Z,9.83
2018-03-26T22:20:51.626Z,9.78
2018-03-26T22:23:18.078Z,9.81
2018-03-26T22:25:44.549Z,9.79
2018-03-26T22:28:11.005Z,9.75
2018-03-26T22:30:37.461Z,9.84
2018-03-26T22:33:03.930Z,9.83
2018-03-26T22:35:30.393Z,9.81
2018-03-26T22:37:56.838Z,9.83
2018-03-26T22:40:23.260Z,9.86
2018-03-26T22:42:49.705Z,9.78
2018-03-26T22:45:16.138Z,9.86
2018-03-26T22:47:42.557Z,9.89
2018-03-26T22:50:08.992Z,9.93
2018-03-26T22:52:35.438Z,9.93
2018-03-26T22:55:01.865Z,9.91
2018-03-26T22:57:28.313Z,9.93
2018-03-26T22:59:54.737Z,9.89
2018-03-26T23:02:21.146Z,9.88
2018-03-26T23:04:47.558Z,9.82
2018-03-26T23:07:14.025Z,9.83
2018-03-26T23:09:40.451Z,9.83
2018-03-26T23:12:06.938Z,9.76
2018-03-26T23:14:33.441Z,9.77
2018-03-26T23:16:59.861Z,9.84
2018-03-26T23:19:26.293Z,9.87
2018-03-26T23:21:52.718Z,9.88
2018-03-26T23:24:19.136Z,9.89
2018-03-26T23:26:45.554Z,9.91
2018-03-26T23:29:12.005Z,9.91
2018-03-26T23:31:38.557Z,9.90
2018-03-26T23:34:05.158Z,9.89
2018-03-26T23:36:31.589Z,9.88
2018-03-26T23:38:58.016Z,9.86
2018-03-26T23:41:24.457Z,9.80
2018-03-26T23:43:50.939Z,9.80
2018-03-26T23:46:17.385Z,9.79
2018-03-26T23:48:43.833Z,9.81
2018-03-26T23:51:10.290Z,9.84
2018-03-26T23:53:36.757Z,9.86
2018-03-26T23:56:03.213Z,9.78
2018-03-26T23:58:29.706Z,9.79
